sensor_id;sensor_type;location;lat;lon;timestamp;pressure;altitude;pressure_sealevel;temperature;humidity
73024;BME280;61199;47.526;8.538;2022-12-13T00:01:47;95596.00;;;-2.61;68.81
73024;BME280;61199;47.526;8.538;2022-12-13T00:04:16;95592.53;;;-2.60;68.84
73024;BME280;61199;47.526;8.538;2022-12-13T00:06:43;95584.25;;;-2.65;68.49
73024;BME280;61199;47.526;8.538;2022-12-13T00:09:12;95590.66;;;-2.56;68.27
73024;BME280;61199;47.526;8.538;2022-12-13T00:11:38;95599.91;;;-2.54;67.74
73024;BME280;61199;47.526;8.538;2022-12-13T00:14:05;95598.56;;;-2.61;68.00
73024;BME280;61199;47.526;8.538;2022-12-13T00:16:32;95596.91;;;-2.62;67.41
73024;BME280;61199;47.526;8.538;2022-12-13T00:18:59;95594.94;;;-2.57;67.73
73024;BME280;61199;47.526;8.538;2022-12-13T00:21:28;95595.16;;;-2.61;67.54
73024;BME280;61199;47.526;8.538;2022-12-13T00:23:56;95599.69;;;-2.49;67.45
73024;BME280;61199;47.526;8.538;2022-12-13T00:26:25;95594.16;;;-2.42;67.31
73024;BME280;61199;47.526;8.538;2022-12-13T00:28:52;95587.38;;;-2.43;66.74
73024;BME280;61199;47.526;8.538;2022-12-13T00:31:21;95589.03;;;-2.42;67.14
73024;BME280;61199;47.526;8.538;2022-12-13T00:34:08;95581.97;;;-2.37;66.63
73024;BME280;61199;47.526;8.538;2022-12-13T00:36:35;95585.59;;;-2.25;66.21
73024;BME280;61199;47.526;8.538;2022-12-13T00:39:01;95594.59;;;-2.34;66.05
73024;BME280;61199;47.526;8.538;2022-12-13T00:41:30;95593.22;;;-2.24;65.93
73024;BME280;61199;47.526;8.538;2022-12-13T00:43:58;95589.66;;;-2.37;66.16
73024;BME280;61199;47.526;8.538;2022-12-13T00:46:26;95584.78;;;-2.26;66.23
73024;BME280;61199;47.526;8.538;2022-12-13T00:48:55;95572.94;;;-2.28;66.23
73024;BME280;61199;47.526;8.538;2022-12-13T00:51:22;95574.88;;;-2.49;66.04
73024;BME280;61199;47.526;8.538;2022-12-13T00:53:48;95561.38;;;-2.52;66.26
73024;BME280;61199;47.526;8.538;2022-12-13T00:56:17;95565.78;;;-2.71;67.03
73024;BME280;61199;47.526;8.538;2022-12-13T00:58:44;95567.59;;;-2.73;66.96
73024;BME280;61199;47.526;8.538;2022-12-13T01:01:19;95569.41;;;-2.75;66.60
73024;BME280;61199;47.526;8.538;2022-12-13T01:03:46;95570.91;;;-2.71;66.96
73024;BME280;61199;47.526;8.538;2022-12-13T01:06:16;95568.53;;;-2.91;66.67
73024;BME280;61199;47.526;8.538;2022-12-13T01:08:44;95567.25;;;-2.83;66.82
73024;BME280;61199;47.526;8.538;2022-12-13T01:11:11;95562.25;;;-2.86;67.25
73024;BME280;61199;47.526;8.538;2022-12-13T01:13:38;95561.66;;;-2.74;66.84
73024;BME280;61199;47.526;8.538;2022-12-13T01:16:07;95559.09;;;-2.74;66.56
73024;BME280;61199;47.526;8.538;2022-12-13T01:18:35;95562.66;;;-2.76;66.65
73024;BME280;61199;47.526;8.538;2022-12-13T01:21:17;95551.25;;;-2.71;66.26
73024;BME280;61199;47.526;8.538;2022-12-13T01:23:44;95554.00;;;-2.74;66.13
73024;BME280;61199;47.526;8.538;2022-12-13T01:26:13;95559.19;;;-2.75;66.19
73024;BME280;61199;47.526;8.538;2022-12-13T01:28:40;95558.13;;;-2.88;66.46
73024;BME280;61199;47.526;8.538;2022-12-13T01:31:13;95550.66;;;-2.92;66.43
73024;BME280;61199;47.526;8.538;2022-12-13T01:33:41;95561.53;;;-3.04;66.73
73024;BME280;61199;47.526;8.538;2022-12-13T01:36:10;95551.38;;;-3.23;67.10
73024;BME280;61199;47.526;8.538;2022-12-13T01:38:38;95551.28;;;-3.21;66.88
73024;BME280;61199;47.526;8.538;2022-12-13T01:41:05;95548.25;;;-3.12;66.83
73024;BME280;61199;47.526;8.538;2022-12-13T01:46:10;95545.91;;;-2.83;66.08
73024;BME280;61199;47.526;8.538;2022-12-13T01:48:40;95542.09;;;-2.91;65.73
73024;BME280;61199;47.526;8.538;2022-12-13T01:51:10;95547.34;;;-3.11;65.81
73024;BME280;61199;47.526;8.538;2022-12-13T01:53:39;95551.44;;;-3.07;66.36
73024;BME280;61199;47.526;8.538;2022-12-13T01:56:10;95546.31;;;-3.07;66.22
73024;BME280;61199;47.526;8.538;2022-12-13T01:58:38;95546.59;;;-3.13;66.51
73024;BME280;61199;47.526;8.538;2022-12-13T02:01:05;95544.06;;;-3.13;66.13
73024;BME280;61199;47.526;8.538;2022-12-13T02:03:32;95529.00;;;-3.36;66.46
73024;BME280;61199;47.526;8.538;2022-12-13T02:06:03;95540.78;;;-3.34;66.63
73024;BME280;61199;47.526;8.538;2022-12-13T02:08:31;95531.81;;;-3.59;67.41
73024;BME280;61199;47.526;8.538;2022-12-13T02:11:02;95532.81;;;-3.45;67.20
73024;BME280;61199;47.526;8.538;2022-12-13T02:13:28;95528.66;;;-3.47;67.32
73024;BME280;61199;47.526;8.538;2022-12-13T02:16:11;95523.19;;;-3.40;67.33
73024;BME280;61199;47.526;8.538;2022-12-13T02:25:04;95516.56;;;-3.27;67.22
73024;BME280;61199;47.526;8.538;2022-12-13T02:30:59;95519.34;;;-3.31;67.03
73024;BME280;61199;47.526;8.538;2022-12-13T02:36:19;95514.22;;;-3.48;66.35
73024;BME280;61199;47.526;8.538;2022-12-13T02:39:00;95513.78;;;-3.39;66.53
73024;BME280;61199;47.526;8.538;2022-12-13T02:41:35;95508.72;;;-3.58;66.56
73024;BME280;61199;47.526;8.538;2022-12-13T02:44:15;95509.50;;;-3.39;66.40
73024;BME280;61199;47.526;8.538;2022-12-13T02:46:58;95517.53;;;-3.29;66.00
73024;BME280;61199;47.526;8.538;2022-12-13T02:49:29;95498.19;;;-3.18;65.86
73024;BME280;61199;47.526;8.538;2022-12-13T02:51:56;95503.84;;;-3.11;65.70
73024;BME280;61199;47.526;8.538;2022-12-13T02:54:24;95502.06;;;-3.26;66.04
73024;BME280;61199;47.526;8.538;2022-12-13T02:56:59;95503.78;;;-3.27;65.35
73024;BME280;61199;47.526;8.538;2022-12-13T02:59:35;95502.41;;;-3.34;66.09
73024;BME280;61199;47.526;8.538;2022-12-13T03:05:16;95492.56;;;-3.07;65.23
73024;BME280;61199;47.526;8.538;2022-12-13T03:08:25;95482.91;;;-3.02;65.04
73024;BME280;61199;47.526;8.538;2022-12-13T03:11:09;95483.28;;;-2.93;64.73
73024;BME280;61199;47.526;8.538;2022-12-13T03:13:58;95480.19;;;-2.99;64.75
73024;BME280;61199;47.526;8.538;2022-12-13T03:16:33;95475.81;;;-2.97;65.16
73024;BME280;61199;47.526;8.538;2022-12-13T03:19:04;95484.06;;;-2.92;64.97
73024;BME280;61199;47.526;8.538;2022-12-13T03:21:48;95476.00;;;-3.00;64.82
73024;BME280;61199;47.526;8.538;2022-12-13T03:24:19;95465.75;;;-3.00;64.35
73024;BME280;61199;47.526;8.538;2022-12-13T03:26:48;95474.59;;;-3.23;64.91
73024;BME280;61199;47.526;8.538;2022-12-13T03:29:16;95469.38;;;-3.21;65.30
73024;BME280;61199;47.526;8.538;2022-12-13T03:31:53;95472.69;;;-3.19;65.24
73024;BME280;61199;47.526;8.538;2022-12-13T03:34:20;95471.78;;;-3.35;65.09
73024;BME280;61199;47.526;8.538;2022-12-13T03:36:52;95473.91;;;-3.26;65.30
73024;BME280;61199;47.526;8.538;2022-12-13T03:39:19;95475.72;;;-3.28;65.25
73024;BME280;61199;47.526;8.538;2022-12-13T03:41:45;95473.13;;;-3.11;65.65
73024;BME280;61199;47.526;8.538;2022-12-13T03:44:12;95465.91;;;-3.20;65.10
73024;BME280;61199;47.526;8.538;2022-12-13T03:46:38;95464.84;;;-3.16;65.38
73024;BME280;61199;47.526;8.538;2022-12-13T03:49:05;95471.91;;;-3.21;65.43
73024;BME280;61199;47.526;8.538;2022-12-13T03:51:31;95469.81;;;-3.13;64.39
73024;BME280;61199;47.526;8.538;2022-12-13T03:53:58;95477.03;;;-3.04;65.02
73024;BME280;61199;47.526;8.538;2022-12-13T03:56:24;95471.91;;;-3.04;64.36
73024;BME280;61199;47.526;8.538;2022-12-13T03:58:51;95467.97;;;-2.94;64.78
73024;BME280;61199;47.526;8.538;2022-12-13T04:01:17;95473.03;;;-2.93;64.25
73024;BME280;61199;47.526;8.538;2022-12-13T04:03:45;95463.34;;;-2.88;64.25
73024;BME280;61199;47.526;8.538;2022-12-13T04:06:12;95460.47;;;-2.97;64.33
73024;BME280;61199;47.526;8.538;2022-12-13T04:08:49;95455.34;;;-2.97;64.26
73024;BME280;61199;47.526;8.538;2022-12-13T04:11:16;95459.34;;;-3.09;64.71
73024;BME280;61199;47.526;8.538;2022-12-13T04:14:08;95456.81;;;-2.93;64.38
73024;BME280;61199;47.526;8.538;2022-12-13T04:16:35;95459.31;;;-2.92;64.17
73024;BME280;61199;47.526;8.538;2022-12-13T04:19:01;95456.00;;;-2.94;64.47
73024;BME280;61199;47.526;8.538;2022-12-13T04:21:28;95462.25;;;-2.83;64.29
73024;BME280;61199;47.526;8.538;2022-12-13T04:23:54;95464.88;;;-2.84;63.97
73024;BME280;61199;47.526;8.538;2022-12-13T04:26:26;95459.81;;;-2.86;63.77
73024;BME280;61199;47.526;8.538;2022-12-13T04:28:52;95457.03;;;-2.81;63.51
73024;BME280;61199;47.526;8.538;2022-12-13T04:31:20;95462.97;;;-2.81;63.92
73024;BME280;61199;47.526;8.538;2022-12-13T04:33:47;95463.66;;;-2.77;63.66
73024;BME280;61199;47.526;8.538;2022-12-13T04:36:13;95469.00;;;-2.82;63.54
73024;BME280;61199;47.526;8.538;2022-12-13T04:38:58;95459.81;;;-2.86;63.61
73024;BME280;61199;47.526;8.538;2022-12-13T04:41:26;95451.56;;;-2.90;63.42
73024;BME280;61199;47.526;8.538;2022-12-13T04:43:59;95453.88;;;-2.86;63.71
73024;BME280;61199;47.526;8.538;2022-12-13T04:46:26;95448.53;;;-2.82;63.53
73024;BME280;61199;47.526;8.538;2022-12-13T04:48:52;95450.31;;;-2.84;62.95
73024;BME280;61199;47.526;8.538;2022-12-13T04:51:19;95446.88;;;-2.83;63.33
73024;BME280;61199;47.526;8.538;2022-12-13T04:53:45;95450.50;;;-3.03;63.28
73024;BME280;61199;47.526;8.538;2022-12-13T04:56:11;95458.94;;;-3.01;64.03
73024;BME280;61199;47.526;8.538;2022-12-13T04:58:38;95453.69;;;-2.98;63.67
73024;BME280;61199;47.526;8.538;2022-12-13T05:01:06;95454.34;;;-2.95;63.54
73024;BME280;61199;47.526;8.538;2022-12-13T05:03:34;95450.66;;;-2.89;63.64
73024;BME280;61199;47.526;8.538;2022-12-13T05:06:08;95458.06;;;-3.00;63.18
73024;BME280;61199;47.526;8.538;2022-12-13T05:08:52;95454.72;;;-3.02;63.85
73024;BME280;61199;47.526;8.538;2022-12-13T05:11:18;95445.59;;;-2.91;63.49
73024;BME280;61199;47.526;8.538;2022-12-13T05:13:48;95447.34;;;-2.91;63.92
73024;BME280;61199;47.526;8.538;2022-12-13T05:16:14;95447.13;;;-2.87;63.50
73024;BME280;61199;47.526;8.538;2022-12-13T05:18:41;95445.28;;;-2.85;63.48
73024;BME280;61199;47.526;8.538;2022-12-13T05:21:09;95447.63;;;-2.81;62.56
73024;BME280;61199;47.526;8.538;2022-12-13T05:23:36;95445.25;;;-2.68;62.63
73024;BME280;61199;47.526;8.538;2022-12-13T05:26:03;95439.22;;;-2.67;62.83
73024;BME280;61199;47.526;8.538;2022-12-13T05:28:31;95445.63;;;-2.76;62.74
73024;BME280;61199;47.526;8.538;2022-12-13T05:31:06;95443.47;;;-2.83;63.28
73024;BME280;61199;47.526;8.538;2022-12-13T05:33:50;95446.09;;;-2.85;63.17
73024;BME280;61199;47.526;8.538;2022-12-13T05:36:16;95442.63;;;-2.84;63.03
73024;BME280;61199;47.526;8.538;2022-12-13T05:38:43;95437.81;;;-2.73;62.59
73024;BME280;61199;47.526;8.538;2022-12-13T05:41:16;95432.91;;;-2.77;62.27
73024;BME280;61199;47.526;8.538;2022-12-13T05:43:44;95440.47;;;-2.91;62.95
73024;BME280;61199;47.526;8.538;2022-12-13T05:46:11;95444.84;;;-2.93;63.44
73024;BME280;61199;47.526;8.538;2022-12-13T05:48:38;95437.75;;;-2.88;63.32
73024;BME280;61199;47.526;8.538;2022-12-13T05:51:05;95438.47;;;-3.01;63.10
73024;BME280;61199;47.526;8.538;2022-12-13T05:53:37;95445.50;;;-3.05;63.42
73024;BME280;61199;47.526;8.538;2022-12-13T05:56:03;95433.19;;;-2.98;63.49
73024;BME280;61199;47.526;8.538;2022-12-13T05:58:30;95439.13;;;-2.98;63.26
73024;BME280;61199;47.526;8.538;2022-12-13T06:01:06;95430.22;;;-2.91;63.78
73024;BME280;61199;47.526;8.538;2022-12-13T06:03:33;95433.03;;;-2.95;63.37
73024;BME280;61199;47.526;8.538;2022-12-13T06:06:01;95433.03;;;-2.95;63.51
73024;BME280;61199;47.526;8.538;2022-12-13T06:08:29;95430.19;;;-3.06;63.24
73024;BME280;61199;47.526;8.538;2022-12-13T06:10:58;95428.56;;;-3.07;63.55
73024;BME280;61199;47.526;8.538;2022-12-13T06:13:41;95429.78;;;-3.31;63.96
73024;BME280;61199;47.526;8.538;2022-12-13T06:16:10;95430.75;;;-3.34;64.07
73024;BME280;61199;47.526;8.538;2022-12-13T06:18:49;95432.50;;;-3.51;64.46
73024;BME280;61199;47.526;8.538;2022-12-13T06:21:19;95436.72;;;-3.50;64.99
73024;BME280;61199;47.526;8.538;2022-12-13T06:23:46;95437.16;;;-3.42;64.62
73024;BME280;61199;47.526;8.538;2022-12-13T06:26:12;95436.78;;;-3.35;64.76
73024;BME280;61199;47.526;8.538;2022-12-13T06:28:38;95450.19;;;-3.30;64.22
73024;BME280;61199;47.526;8.538;2022-12-13T06:31:05;95455.63;;;-4.05;66.28
73024;BME280;61199;47.526;8.538;2022-12-13T06:33:32;95462.81;;;-3.95;67.44
73024;BME280;61199;47.526;8.538;2022-12-13T06:36:02;95467.94;;;-4.13;68.13
73024;BME280;61199;47.526;8.538;2022-12-13T06:38:30;95457.75;;;-3.96;67.26
73024;BME280;61199;47.526;8.538;2022-12-13T06:43:33;95463.41;;;-3.90;66.43
73024;BME280;61199;47.526;8.538;2022-12-13T06:46:04;95466.50;;;-3.83;66.28
73024;BME280;61199;47.526;8.538;2022-12-13T06:48:31;95463.19;;;-3.68;65.96
73024;BME280;61199;47.526;8.538;2022-12-13T06:51:01;95468.25;;;-3.67;65.92
73024;BME280;61199;47.526;8.538;2022-12-13T06:53:28;95467.28;;;-3.64;65.85
73024;BME280;61199;47.526;8.538;2022-12-13T06:55:55;95454.69;;;-3.52;65.71
73024;BME280;61199;47.526;8.538;2022-12-13T06:58:22;95461.84;;;-3.58;65.40
73024;BME280;61199;47.526;8.538;2022-12-13T07:00:49;95455.16;;;-3.61;65.39
73024;BME280;61199;47.526;8.538;2022-12-13T07:03:15;95457.13;;;-3.66;65.66
73024;BME280;61199;47.526;8.538;2022-12-13T07:05:42;95456.22;;;-3.65;65.81
73024;BME280;61199;47.526;8.538;2022-12-13T07:08:08;95466.03;;;-3.74;65.84
73024;BME280;61199;47.526;8.538;2022-12-13T07:10:37;95463.84;;;-3.82;65.90
73024;BME280;61199;47.526;8.538;2022-12-13T07:13:04;95460.03;;;-3.90;66.13
73024;BME280;61199;47.526;8.538;2022-12-13T07:15:32;95464.16;;;-3.88;65.55
73024;BME280;61199;47.526;8.538;2022-12-13T07:17:59;95472.16;;;-3.77;65.96
73024;BME280;61199;47.526;8.538;2022-12-13T07:20:25;95477.34;;;-3.78;65.98
73024;BME280;61199;47.526;8.538;2022-12-13T07:22:51;95473.94;;;-3.79;66.04
73024;BME280;61199;47.526;8.538;2022-12-13T07:25:24;95470.56;;;-3.79;65.91
73024;BME280;61199;47.526;8.538;2022-12-13T07:28:05;95477.34;;;-3.78;66.16
73024;BME280;61199;47.526;8.538;2022-12-13T07:30:35;95470.41;;;-3.76;65.70
73024;BME280;61199;47.526;8.538;2022-12-13T07:33:07;95467.13;;;-3.61;66.03
73024;BME280;61199;47.526;8.538;2022-12-13T07:35:34;95470.28;;;-3.73;66.11
73024;BME280;61199;47.526;8.538;2022-12-13T07:38:03;95463.25;;;-3.70;65.83
73024;BME280;61199;47.526;8.538;2022-12-13T07:40:32;95474.19;;;-3.66;66.26
73024;BME280;61199;47.526;8.538;2022-12-13T07:42:58;95474.50;;;-3.72;66.45
73024;BME280;61199;47.526;8.538;2022-12-13T07:45:25;95488.94;;;-3.54;66.07
73024;BME280;61199;47.526;8.538;2022-12-13T07:47:51;95485.09;;;-3.63;65.90
73024;BME280;61199;47.526;8.538;2022-12-13T07:50:18;95488.63;;;-3.65;66.43
73024;BME280;61199;47.526;8.538;2022-12-13T07:52:51;95495.47;;;-3.66;66.09
73024;BME280;61199;47.526;8.538;2022-12-13T07:55:19;95487.13;;;-3.69;65.96
73024;BME280;61199;47.526;8.538;2022-12-13T07:58:14;95487.72;;;-3.81;66.41
73024;BME280;61199;47.526;8.538;2022-12-13T08:00:43;95480.78;;;-3.79;66.55
73024;BME280;61199;47.526;8.538;2022-12-13T08:03:12;95495.84;;;-3.73;66.55
73024;BME280;61199;47.526;8.538;2022-12-13T08:06:09;95500.81;;;-3.70;66.27
73024;BME280;61199;47.526;8.538;2022-12-13T08:08:36;95502.19;;;-3.63;66.43
73024;BME280;61199;47.526;8.538;2022-12-13T08:11:05;95495.69;;;-3.70;66.40
73024;BME280;61199;47.526;8.538;2022-12-13T08:13:32;95495.75;;;-3.72;66.69
73024;BME280;61199;47.526;8.538;2022-12-13T08:16:04;95497.28;;;-3.68;66.24
73024;BME280;61199;47.526;8.538;2022-12-13T08:18:51;95489.53;;;-3.66;68.03
73024;BME280;61199;47.526;8.538;2022-12-13T08:21:31;95500.03;;;-4.08;67.89
73024;BME280;61199;47.526;8.538;2022-12-13T08:24:25;95500.41;;;-3.80;67.10
73024;BME280;61199;47.526;8.538;2022-12-13T08:26:52;95494.50;;;-3.63;66.94
73024;BME280;61199;47.526;8.538;2022-12-13T08:29:19;95502.88;;;-3.60;66.65
73024;BME280;61199;47.526;8.538;2022-12-13T08:32:01;95505.78;;;-3.50;67.03
73024;BME280;61199;47.526;8.538;2022-12-13T08:34:29;95504.75;;;-3.46;66.53
73024;BME280;61199;47.526;8.538;2022-12-13T08:36:58;95505.13;;;-3.54;66.39
73024;BME280;61199;47.526;8.538;2022-12-13T08:39:31;95505.66;;;-3.30;66.46
73024;BME280;61199;47.526;8.538;2022-12-13T08:42:21;95513.31;;;-3.30;65.63
73024;BME280;61199;47.526;8.538;2022-12-13T08:44:48;95505.50;;;-3.10;65.74
73024;BME280;61199;47.526;8.538;2022-12-13T08:47:17;95507.28;;;-2.95;65.70
73024;BME280;61199;47.526;8.538;2022-12-13T08:49:57;95509.03;;;-2.96;65.33
73024;BME280;61199;47.526;8.538;2022-12-13T08:52:33;95514.00;;;-2.93;65.03
73024;BME280;61199;47.526;8.538;2022-12-13T08:55:06;95519.41;;;-2.99;65.30
73024;BME280;61199;47.526;8.538;2022-12-13T08:57:35;95518.44;;;-2.96;64.75
73024;BME280;61199;47.526;8.538;2022-12-13T09:00:03;95524.59;;;-2.84;64.94
73024;BME280;61199;47.526;8.538;2022-12-13T09:02:30;95523.25;;;-2.74;64.60
73024;BME280;61199;47.526;8.538;2022-12-13T09:05:04;95531.06;;;-2.77;64.70
73024;BME280;61199;47.526;8.538;2022-12-13T09:07:30;95525.59;;;-2.86;64.95
73024;BME280;61199;47.526;8.538;2022-12-13T09:09:56;95529.13;;;-2.72;64.86
73024;BME280;61199;47.526;8.538;2022-12-13T09:12:23;95531.03;;;-2.60;64.29
73024;BME280;61199;47.526;8.538;2022-12-13T09:14:56;95531.97;;;-2.45;64.50
73024;BME280;61199;47.526;8.538;2022-12-13T09:17:29;95530.41;;;-2.48;64.04
73024;BME280;61199;47.526;8.538;2022-12-13T09:20:03;95528.50;;;-2.44;63.89
73024;BME280;61199;47.526;8.538;2022-12-13T09:22:50;95516.38;;;-2.41;64.12
73024;BME280;61199;47.526;8.538;2022-12-13T09:25:16;95519.78;;;-2.40;64.14
73024;BME280;61199;47.526;8.538;2022-12-13T09:27:49;95522.34;;;-2.25;63.98
73024;BME280;61199;47.526;8.538;2022-12-13T09:30:16;95505.63;;;-2.32;64.57
73024;BME280;61199;47.526;8.538;2022-12-13T09:32:42;95509.84;;;-2.31;63.86
73024;BME280;61199;47.526;8.538;2022-12-13T09:35:15;95511.25;;;-2.25;63.67
73024;BME280;61199;47.526;8.538;2022-12-13T09:37:41;95506.78;;;-2.37;63.89
73024;BME280;61199;47.526;8.538;2022-12-13T09:40:21;95515.50;;;-2.57;64.62
73024;BME280;61199;47.526;8.538;2022-12-13T09:42:53;95525.50;;;-2.52;64.52
73024;BME280;61199;47.526;8.538;2022-12-13T09:45:39;95514.78;;;-2.43;64.42
73024;BME280;61199;47.526;8.538;2022-12-13T09:48:15;95520.34;;;-2.35;64.66
73024;BME280;61199;47.526;8.538;2022-12-13T09:50:48;95517.78;;;-2.20;64.26
73024;BME280;61199;47.526;8.538;2022-12-13T09:53:24;95517.47;;;-2.29;64.13
73024;BME280;61199;47.526;8.538;2022-12-13T09:56:01;95519.31;;;-2.16;64.18
73024;BME280;61199;47.526;8.538;2022-12-13T09:58:36;95518.50;;;-2.33;64.43
73024;BME280;61199;47.526;8.538;2022-12-13T10:01:04;95514.97;;;-2.31;64.61
73024;BME280;61199;47.526;8.538;2022-12-13T10:03:31;95510.97;;;-2.52;65.32
73024;BME280;61199;47.526;8.538;2022-12-13T10:05:58;95517.28;;;-2.42;64.77
73024;BME280;61199;47.526;8.538;2022-12-13T10:08:36;95509.53;;;-2.40;65.27
73024;BME280;61199;47.526;8.538;2022-12-13T10:11:03;95511.97;;;-2.39;64.71
73024;BME280;61199;47.526;8.538;2022-12-13T10:13:41;95506.97;;;-2.40;65.51
73024;BME280;61199;47.526;8.538;2022-12-13T10:16:16;95503.75;;;-2.13;64.78
73024;BME280;61199;47.526;8.538;2022-12-13T10:18:49;95505.81;;;-2.04;64.86
73024;BME280;61199;47.526;8.538;2022-12-13T10:21:21;95496.97;;;-2.14;64.30
73024;BME280;61199;47.526;8.538;2022-12-13T10:23:50;95495.97;;;-2.11;64.49
73024;BME280;61199;47.526;8.538;2022-12-13T10:26:37;95482.31;;;-2.12;64.98
73024;BME280;61199;47.526;8.538;2022-12-13T10:29:05;95487.31;;;-2.09;65.30
73024;BME280;61199;47.526;8.538;2022-12-13T10:31:41;95479.94;;;-2.15;65.12
73024;BME280;61199;47.526;8.538;2022-12-13T10:34:23;95486.47;;;-2.25;65.40
73024;BME280;61199;47.526;8.538;2022-12-13T10:36:50;95471.72;;;-2.06;64.98
73024;BME280;61199;47.526;8.538;2022-12-13T10:39:40;95483.16;;;-2.11;64.89
73024;BME280;61199;47.526;8.538;2022-12-13T10:42:16;95485.72;;;-1.96;65.19
73024;BME280;61199;47.526;8.538;2022-12-13T10:45:07;95481.31;;;-1.94;64.96
73024;BME280;61199;47.526;8.538;2022-12-13T10:47:35;95481.56;;;-1.83;64.57
73024;BME280;61199;47.526;8.538;2022-12-13T10:50:02;95476.25;;;-1.64;64.83
73024;BME280;61199;47.526;8.538;2022-12-13T10:52:33;95471.56;;;-1.72;64.74
73024;BME280;61199;47.526;8.538;2022-12-13T10:55:31;95469.13;;;-1.75;64.64
73024;BME280;61199;47.526;8.538;2022-12-13T10:58:02;95471.78;;;-1.61;64.85
73024;BME280;61199;47.526;8.538;2022-12-13T11:00:40;95467.97;;;-1.40;64.50
73024;BME280;61199;47.526;8.538;2022-12-13T11:03:27;95471.88;;;-1.33;63.94
73024;BME280;61199;47.526;8.538;2022-12-13T11:06:21;95485.81;;;-1.52;63.91
73024;BME280;61199;47.526;8.538;2022-12-13T11:08:47;95468.38;;;-1.32;63.69
73024;BME280;61199;47.526;8.538;2022-12-13T11:11:16;95477.03;;;-1.48;64.02
73024;BME280;61199;47.526;8.538;2022-12-13T11:13:43;95464.88;;;-1.45;63.70
73024;BME280;61199;47.526;8.538;2022-12-13T11:19:02;95466.81;;;-1.64;64.00
73024;BME280;61199;47.526;8.538;2022-12-13T11:21:36;95461.31;;;-1.58;63.82
73024;BME280;61199;47.526;8.538;2022-12-13T11:24:05;95462.03;;;-1.40;63.57
73024;BME280;61199;47.526;8.538;2022-12-13T11:26:35;95459.38;;;-1.39;63.58
73024;BME280;61199;47.526;8.538;2022-12-13T11:29:13;95453.31;;;-1.38;63.30
73024;BME280;61199;47.526;8.538;2022-12-13T11:32:14;95443.97;;;-1.39;63.12
73024;BME280;61199;47.526;8.538;2022-12-13T11:38:04;95437.91;;;-1.38;62.96
73024;BME280;61199;47.526;8.538;2022-12-13T11:40:42;95434.81;;;-1.29;62.62
73024;BME280;61199;47.526;8.538;2022-12-13T11:43:26;95445.66;;;-1.53;63.33
73024;BME280;61199;47.526;8.538;2022-12-13T11:45:57;95442.88;;;-1.35;63.17
73024;BME280;61199;47.526;8.538;2022-12-13T11:48:48;95446.25;;;-1.34;63.07
73024;BME280;61199;47.526;8.538;2022-12-13T11:51:24;95454.00;;;-1.64;63.71
73024;BME280;61199;47.526;8.538;2022-12-13T11:54:00;95448.97;;;-1.51;63.33
73024;BME280;61199;47.526;8.538;2022-12-13T11:56:32;95437.91;;;-1.38;63.65
73024;BME280;61199;47.526;8.538;2022-12-13T11:59:46;95434.28;;;-1.34;63.18
73024;BME280;61199;47.526;8.538;2022-12-13T12:02:22;95431.44;;;-1.29;66.92
73024;BME280;61199;47.526;8.538;2022-12-13T12:04:53;95442.94;;;-1.07;66.14
73024;BME280;61199;47.526;8.538;2022-12-13T12:07:33;95431.28;;;-0.98;64.22
73024;BME280;61199;47.526;8.538;2022-12-13T12:12:51;95427.53;;;-1.07;63.73
73024;BME280;61199;47.526;8.538;2022-12-13T12:15:27;95428.81;;;-1.00;63.02
73024;BME280;61199;47.526;8.538;2022-12-13T12:17:55;95426.25;;;-1.00;63.77
73024;BME280;61199;47.526;8.538;2022-12-13T12:20:59;95430.38;;;-1.11;63.31
73024;BME280;61199;47.526;8.538;2022-12-13T12:26:22;95431.38;;;-0.86;63.49
73024;BME280;61199;47.526;8.538;2022-12-13T12:29:26;95420.72;;;-0.66;62.90
73024;BME280;61199;47.526;8.538;2022-12-13T12:32:19;95427.72;;;-0.68;61.96
73024;BME280;61199;47.526;8.538;2022-12-13T12:41:21;95440.09;;;-0.60;61.54
73024;BME280;61199;47.526;8.538;2022-12-13T12:55:08;95454.91;;;-0.64;61.28
73024;BME280;61199;47.526;8.538;2022-12-13T12:57:54;95440.22;;;-0.62;61.04
73024;BME280;61199;47.526;8.538;2022-12-13T13:00:29;95440.22;;;-0.62;61.90
73024;BME280;61199;47.526;8.538;2022-12-13T13:03:14;95446.16;;;-0.61;61.83
73024;BME280;61199;47.526;8.538;2022-12-13T13:05:58;95442.75;;;-0.48;61.70
73024;BME280;61199;47.526;8.538;2022-12-13T13:08:41;95443.16;;;-0.54;61.13
73024;BME280;61199;47.526;8.538;2022-12-13T13:11:16;95450.41;;;-0.74;61.51
73024;BME280;61199;47.526;8.538;2022-12-13T13:19:01;95451.47;;;-0.78;62.19
73024;BME280;61199;47.526;8.538;2022-12-13T13:26:27;95444.06;;;-0.69;61.28
73024;BME280;61199;47.526;8.538;2022-12-13T13:29:21;95452.31;;;-0.50;61.02
73024;BME280;61199;47.526;8.538;2022-12-13T13:40:50;95454.88;;;-0.50;62.04
73024;BME280;61199;47.526;8.538;2022-12-13T13:43:27;95446.34;;;-0.50;61.97
73024;BME280;61199;47.526;8.538;2022-12-13T13:46:08;95439.19;;;-0.45;62.27
73024;BME280;61199;47.526;8.538;2022-12-13T13:48:58;95429.47;;;-0.40;61.95
73024;BME280;61199;47.526;8.538;2022-12-13T13:54:50;95441.47;;;-0.55;62.03
73024;BME280;61199;47.526;8.538;2022-12-13T13:58:00;95437.44;;;-0.45;62.29
73024;BME280;61199;47.526;8.538;2022-12-13T14:06:34;95437.34;;;-0.43;62.31
73024;BME280;61199;47.526;8.538;2022-12-13T14:09:46;95420.25;;;-0.30;62.07
73024;BME280;61199;47.526;8.538;2022-12-13T14:19:44;95428.31;;;-0.22;62.43
73024;BME280;61199;47.526;8.538;2022-12-13T14:22:04;95438.13;;;-0.15;62.51
73024;BME280;61199;47.526;8.538;2022-12-13T14:29:41;95436.38;;;-0.14;62.54
73024;BME280;61199;47.526;8.538;2022-12-13T14:32:33;95444.56;;;-0.22;62.58
73024;BME280;61199;47.526;8.538;2022-12-13T14:35:02;95439.19;;;-0.31;63.49
73024;BME280;61199;47.526;8.538;2022-12-13T14:38:00;95447.34;;;-0.25;62.90
73024;BME280;61199;47.526;8.538;2022-12-13T14:40:31;95436.22;;;-0.25;62.62
73024;BME280;61199;47.526;8.538;2022-12-13T14:42:58;95438.69;;;-0.24;63.20
73024;BME280;61199;47.526;8.538;2022-12-13T14:45:33;95427.50;;;-0.23;63.40
73024;BME280;61199;47.526;8.538;2022-12-13T14:48:11;95432.06;;;-0.28;63.55
73024;BME280;61199;47.526;8.538;2022-12-13T14:50:40;95442.91;;;-0.23;62.72
73024;BME280;61199;47.526;8.538;2022-12-13T14:53:24;95444.94;;;-0.28;63.58
73024;BME280;61199;47.526;8.538;2022-12-13T14:56:10;95431.34;;;-0.30;62.79
73024;BME280;61199;47.526;8.538;2022-12-13T14:58:56;95436.22;;;-0.25;63.40
73024;BME280;61199;47.526;8.538;2022-12-13T15:02:03;95436.84;;;-0.22;63.83